<?xml version='1.0' encoding='UTF-8'?><gpx version="1.1" creator="JPX - https://github.com/jenetics/jpx" xmlns="http://www.topografix.com/GPX/1/1"><trk><trkseg><trkpt lat="45.63521681979558" lon="9.20690953067187"><ele>210.0</ele><time>2026-04-18T04:44:52.999Z</time></trkpt><trkpt lat="45.63517835720386" lon="9.20683766116047"><ele>210.0</ele><time>2026-04-18T04:50:58Z</time></trkpt><trkpt lat="45.63527479181809" lon="9.20676880206949"><ele>210.0</ele><time>2026-04-18T04:51:52Z</time></trkpt><trkpt lat="45.635205452664486" lon="9.206808848476637"><ele>210.0</ele><time>2026-04-18T04:52:42Z</time></trkpt><trkpt lat="45.63540656248339" lon="9.207170470077699"><ele>210.0</ele><time>2026-04-18T04:55:27Z</time></trkpt><trkpt lat="45.635151958967796" lon="9.20681542047827"><ele>210.0</ele><time>2026-04-18T04:55:30Z</time></trkpt><trkpt lat="45.635221489460356" lon="9.206816432760398"><ele>210.0</ele><time>2026-04-18T05:05:55Z</time></trkpt><trkpt lat="45.63527988837577" lon="9.206866402446932"><ele>210.42857142857142</ele><time>2026-04-18T05:06:00Z</time></trkpt><trkpt lat="45.63534186632121" lon="9.20690659024182"><ele>210.85714285714286</ele><time>2026-04-18T05:06:06Z</time></trkpt><trkpt lat="45.63540793220884" lon="9.206923430754145"><ele>211.28571428571428</ele><time>2026-04-18T05:06:11Z</time></trkpt><trkpt lat="45.63547528412314" lon="9.20696363730328"><ele>211.71428571428572</ele><time>2026-04-18T05:06:16Z</time></trkpt><trkpt lat="45.635531599716145" lon="9.207025601303895"><ele>212.14285714285714</ele><time>2026-04-18T05:06:21Z</time></trkpt><trkpt lat="45.63559456054652" lon="9.207066587008143"><ele>212.57142857142856</ele><time>2026-04-18T05:06:26Z</time></trkpt><trkpt lat="45.635658768824264" lon="9.207121715630699"><ele>213.0</ele><time>2026-04-18T05:06:31Z</time></trkpt><trkpt lat="45.63571804131788" lon="9.207157359935607"><ele>212.99999999999997</ele><time>2026-04-18T05:06:35Z</time></trkpt><trkpt lat="45.6357501418954" lon="9.207242435273365"><ele>213.0</ele><time>2026-04-18T05:06:39Z</time></trkpt><trkpt lat="45.635812464545765" lon="9.207306602471661"><ele>213.0</ele><time>2026-04-18T05:06:44Z</time></trkpt><trkpt lat="45.63576835580351" lon="9.20737465936862"><ele>213.0</ele><time>2026-04-18T05:06:53Z</time></trkpt><trkpt lat="45.635738826287295" lon="9.207462392057018"><ele>213.0</ele><time>2026-04-18T05:06:58.999Z</time></trkpt><trkpt lat="45.635729326214104" lon="9.207580811388365"><ele>212.99999999999997</ele><time>2026-04-18T05:07:01.999Z</time></trkpt><trkpt lat="45.63579143291515" lon="9.207553614639963"><ele>213.0</ele><time>2026-04-18T05:07:26Z</time></trkpt><trkpt lat="45.63580891194463" lon="9.206918669947925"><ele>213.0</ele><time>2026-04-18T05:08:31Z</time></trkpt><trkpt lat="45.63580921234154" lon="9.20674648571672"><ele>213.0</ele><time>2026-04-18T05:08:33Z</time></trkpt><trkpt lat="45.63600121419338" lon="9.206683557037143"><ele>213.0</ele><time>2026-04-18T05:08:35Z</time></trkpt><trkpt lat="45.63605731498214" lon="9.206481429436696"><ele>212.75</ele><time>2026-04-18T05:08:37Z</time></trkpt><trkpt lat="45.63609994722588" lon="9.206324824123207"><ele>212.5</ele><time>2026-04-18T05:08:39Z</time></trkpt><trkpt lat="45.63614245334388" lon="9.20616868211858"><ele>212.25</ele><time>2026-04-18T05:08:41Z</time></trkpt><trkpt lat="45.63618495035847" lon="9.206012573559352"><ele>212.0</ele><time>2026-04-18T05:08:43Z</time></trkpt><trkpt lat="45.635749921245434" lon="9.207551227891079"><ele>212.0</ele><time>2026-04-18T05:08:44Z</time></trkpt><trkpt lat="45.635888100576736" lon="9.207263975356005"><ele>212.0</ele><time>2026-04-18T05:09:58.015Z</time></trkpt><trkpt lat="45.63579246506771" lon="9.207534879974004"><ele>212.00000000000003</ele><time>2026-04-18T05:10:20.999Z</time></trkpt><trkpt lat="45.635710546992414" lon="9.207681928511668"><ele>212.0</ele><time>2026-04-18T05:10:21.999Z</time></trkpt><trkpt lat="45.63575057340823" lon="9.207609086734111"><ele>212.0</ele><time>2026-04-18T05:10:26Z</time></trkpt><trkpt lat="45.63579001987152" lon="9.207531800905596"><ele>212.0</ele><time>2026-04-18T05:10:40Z</time></trkpt><trkpt lat="45.63571956125757" lon="9.207605136934117"><ele>212.00000000000003</ele><time>2026-04-18T05:12:54Z</time></trkpt><trkpt lat="45.63569974926858" lon="9.207513726888571"><ele>212.0</ele><time>2026-04-18T05:12:58Z</time></trkpt><trkpt lat="45.63565508272858" lon="9.207592944385336"><ele>212.0</ele><time>2026-04-18T05:13:25Z</time></trkpt><trkpt lat="45.63566162307972" lon="9.207483616004236"><ele>212.0</ele><time>2026-04-18T05:14:36.999Z</time></trkpt><trkpt lat="45.635679594522735" lon="9.207379330670358"><ele>212.0</ele><time>2026-04-18T05:14:43Z</time></trkpt><trkpt lat="45.635702812461986" lon="9.20746319263495"><ele>212.0</ele><time>2026-04-18T05:14:52Z</time></trkpt><trkpt lat="45.635674861919796" lon="9.207555759641894"><ele>212.0</ele><time>2026-04-18T05:15:02Z</time></trkpt><trkpt lat="45.63574090727695" lon="9.207538039157715"><ele>212.0</ele><time>2026-04-18T05:17:12Z</time></trkpt><trkpt lat="45.635783907614844" lon="9.20761706167551"><ele>212.0</ele><time>2026-04-18T05:17:23Z</time></trkpt></trkseg></trk></gpx>